createdAt,value
2024-02-06T00:01:27.729Z,11.92
2024-02-06T00:04:34.176Z,11.69
2024-02-06T00:07:40.527Z,11.53
2024-02-06T00:10:47.055Z,11.41
2024-02-06T00:13:53.284Z,11.30
2024-02-06T00:16:59.821Z,11.22
2024-02-06T00:20:04.514Z,11.15
2024-02-06T00:23:10.829Z,11.08
2024-02-06T00:26:15.388Z,11.03
2024-02-06T00:29:22.611Z,10.97
2024-02-06T00:32:28.876Z,10.92
2024-02-06T00:35:34.946Z,10.88
2024-02-06T00:38:41.041Z,10.85
2024-02-06T00:41:47.134Z,10.82
2024-02-06T00:44:53.340Z,10.81
2024-02-06T00:47:58.207Z,10.80
2024-02-06T00:51:04.443Z,10.79
2024-02-06T00:54:09.119Z,10.90
2024-02-06T00:57:15.232Z,11.46
2024-02-06T01:00:20.986Z,11.99
2024-02-06T01:03:27.144Z,12.30
2024-02-06T01:06:31.697Z,12.11
2024-02-06T01:09:37.793Z,11.76
2024-02-06T01:12:43.943Z,11.52
2024-02-06T01:15:48.570Z,11.35
2024-02-06T01:18:54.770Z,11.22
2024-02-06T01:21:59.367Z,11.11
2024-02-06T01:25:06.277Z,11.00
2024-02-06T01:28:13.634Z,10.91
2024-02-06T01:31:20.558Z,10.81
2024-02-06T01:34:26.837Z,10.72
2024-02-06T01:37:31.453Z,10.63
2024-02-06T01:40:44.217Z,10.55
2024-02-06T01:43:50.390Z,10.47
2024-02-06T01:46:57.948Z,10.40
2024-02-06T01:50:04.814Z,10.32
2024-02-06T01:53:11.454Z,10.25
2024-02-06T01:56:17.891Z,10.19
2024-02-06T01:59:24.176Z,10.12
2024-02-06T02:02:30.626Z,10.06
2024-02-06T02:05:37.237Z,10.01
2024-02-06T02:08:45.054Z,9.96
2024-02-06T02:11:51.109Z,10.02
2024-02-06T02:14:58.861Z,10.57
2024-02-06T02:18:08.627Z,11.07
2024-02-06T02:21:16.983Z,11.44
2024-02-06T02:24:24.004Z,11.58
2024-02-06T02:27:30.396Z,11.21
2024-02-06T02:30:37.306Z,10.86
2024-02-06T02:33:43.717Z,10.62
2024-02-06T02:36:49.943Z,10.45
2024-02-06T02:39:54.525Z,10.31
2024-02-06T02:43:00.740Z,10.19
2024-02-06T02:46:08.086Z,10.09
2024-02-06T02:49:15.309Z,10.00
2024-02-06T02:52:21.625Z,9.92
2024-02-06T02:55:27.832Z,9.84
2024-02-06T02:58:32.849Z,9.76
2024-02-06T03:01:39.042Z,9.70
2024-02-06T03:04:44.744Z,9.63
2024-02-06T03:07:49.387Z,9.58
2024-02-06T03:10:55.544Z,9.52
2024-02-06T03:14:00.114Z,9.59
2024-02-06T03:17:06.362Z,10.11
2024-02-06T03:20:15.569Z,10.64
2024-02-06T03:23:23.942Z,10.91
2024-02-06T03:26:30.561Z,10.61
2024-02-06T03:29:36.716Z,10.28
2024-02-06T03:32:41.300Z,10.06
2024-02-06T03:35:47.959Z,9.90
2024-02-06T03:38:54.157Z,9.77
2024-02-06T03:41:58.973Z,9.65
2024-02-06T03:45:05.350Z,9.55
2024-02-06T03:48:13.093Z,9.48
2024-02-06T03:51:19.208Z,9.41
2024-02-06T03:54:25.426Z,9.34
2024-02-06T03:57:30.573Z,9.28
2024-02-06T04:00:36.731Z,9.23
2024-02-06T04:03:42.986Z,9.17
2024-02-06T04:06:47.649Z,9.13
2024-02-06T04:09:53.804Z,9.08
2024-02-06T04:12:59.984Z,9.16
2024-02-06T04:16:05.923Z,9.72
2024-02-06T04:19:10.751Z,10.21
2024-02-06T04:22:16.967Z,10.57
2024-02-06T04:25:21.786Z,10.73
2024-02-06T04:28:27.865Z,10.35
2024-02-06T04:31:34.014Z,9.98
2024-02-06T04:34:38.613Z,9.73
2024-02-06T04:37:45.462Z,9.54
2024-02-06T04:40:51.752Z,9.39
2024-02-06T04:43:58.548Z,9.25
2024-02-06T04:47:04.844Z,9.12
2024-02-06T04:50:12.694Z,8.92
2024-02-06T04:53:18.901Z,8.71
2024-02-06T04:56:26.100Z,8.51
2024-02-06T04:59:33.669Z,8.48
2024-02-06T05:02:39.944Z,8.97
2024-02-06T05:05:44.575Z,9.41
2024-02-06T05:08:50.950Z,9.70
2024-02-06T05:11:55.441Z,9.91
2024-02-06T05:15:01.608Z,10.06
2024-02-06T05:18:08.190Z,10.13
2024-02-06T05:21:15.285Z,9.64
2024-02-06T05:24:22.165Z,9.13
2024-02-06T05:27:28.987Z,8.75
2024-02-06T05:30:37.007Z,8.47
2024-02-06T05:33:43.222Z,8.26
2024-02-06T05:36:47.720Z,8.18
2024-02-06T05:39:53.897Z,8.61
2024-02-06T05:43:00.061Z,9.08
2024-02-06T05:46:06.576Z,9.40
2024-02-06T05:49:12.723Z,9.62
2024-02-06T05:52:18.967Z,9.79
2024-02-06T05:55:23.784Z,9.83
2024-02-06T05:58:30.759Z,9.35
2024-02-06T06:01:36.998Z,8.88
2024-02-06T06:04:43.272Z,8.54
2024-02-06T06:07:48.164Z,8.30
2024-02-06T06:10:54.630Z,8.10
2024-02-06T06:14:00.947Z,7.94
2024-02-06T06:17:07.817Z,7.93
2024-02-06T06:20:15.064Z,8.41
2024-02-06T06:23:21.210Z,8.86
2024-02-06T06:26:27.338Z,9.16
2024-02-06T06:29:33.548Z,9.40
2024-02-06T06:32:38.290Z,9.60
2024-02-06T06:35:44.365Z,9.75
2024-02-06T06:38:50.672Z,9.93
2024-02-06T06:41:55.198Z,9.96
2024-02-06T06:45:01.317Z,9.48
2024-02-06T06:48:09.048Z,9.04
2024-02-06T06:51:15.556Z,8.75
2024-02-06T06:54:20.110Z,8.56
2024-02-06T06:57:26.252Z,8.41
2024-02-06T07:00:32.292Z,8.32
2024-02-06T07:03:38.329Z,8.25
2024-02-06T07:06:44.588Z,8.34
2024-02-06T07:09:49.219Z,8.93
2024-02-06T07:12:55.457Z,9.46
2024-02-06T07:15:59.870Z,9.89
2024-02-06T07:19:07.564Z,10.18
2024-02-06T07:22:13.860Z,10.36
2024-02-06T07:25:20.304Z,10.03
2024-02-06T07:28:26.676Z,9.67
2024-02-06T07:31:31.247Z,9.44
2024-02-06T07:34:37.860Z,9.29
2024-02-06T07:37:44.131Z,9.19
2024-02-06T07:40:48.764Z,9.10
2024-02-06T07:43:54.916Z,9.03
2024-02-06T07:46:59.462Z,8.99
2024-02-06T07:50:06.539Z,8.94
2024-02-06T07:53:14.630Z,9.05
2024-02-06T07:56:21.324Z,9.64
2024-02-06T07:59:27.493Z,10.18
2024-02-06T08:02:33.786Z,10.56
2024-02-06T08:05:38.346Z,10.73
2024-02-06T08:08:44.638Z,10.37
2024-02-06T08:11:51.002Z,10.03
2024-02-06T08:14:55.580Z,9.79
2024-02-06T08:18:01.780Z,9.63
2024-02-06T08:21:06.720Z,9.50
2024-02-06T08:24:13.378Z,9.39
2024-02-06T08:27:20.144Z,9.31
2024-02-06T08:30:26.221Z,9.24
2024-02-06T08:33:32.519Z,9.19
2024-02-06T08:36:38.812Z,9.26
2024-02-06T08:39:45.050Z,9.82
2024-02-06T08:42:51.208Z,10.34
2024-02-06T08:45:57.478Z,10.71
2024-02-06T08:49:02.141Z,10.90
2024-02-06T08:52:09.617Z,10.54
2024-02-06T08:55:15.937Z,10.19
2024-02-06T08:58:24.003Z,9.95
2024-02-06T09:01:30.874Z,9.78
2024-02-06T09:04:37.264Z,9.65
2024-02-06T09:07:43.465Z,9.55
2024-02-06T09:10:48.637Z,9.46
2024-02-06T09:13:55.840Z,9.38
2024-02-06T09:17:05.505Z,9.32
2024-02-06T09:20:15.507Z,9.27
2024-02-06T09:23:21.668Z,9.22
2024-02-06T09:26:27.806Z,9.31
2024-02-06T09:29:33.921Z,9.88
2024-02-06T09:32:40.127Z,10.40
2024-02-06T09:35:44.913Z,10.69
2024-02-06T09:38:51.205Z,10.40
2024-02-06T09:42:02.980Z,10.10
2024-02-06T09:45:10.751Z,9.88
2024-02-06T09:48:17.016Z,9.73
2024-02-06T09:51:25.287Z,9.62
2024-02-06T09:54:33.538Z,9.52
2024-02-06T09:57:42.917Z,9.44
2024-02-06T10:00:52.144Z,9.36
2024-02-06T10:04:01.894Z,9.31
2024-02-06T10:07:09.037Z,9.28
2024-02-06T10:10:16.175Z,9.26
2024-02-06T10:13:23.997Z,9.40
2024-02-06T10:16:30.264Z,10.02
2024-02-06T10:19:37.004Z,10.57
2024-02-06T10:22:43.958Z,10.89
2024-02-06T10:25:52.183Z,10.63
2024-02-06T10:29:08.648Z,10.36
2024-02-06T10:32:19.323Z,10.18
2024-02-06T10:35:33.547Z,10.07
2024-02-06T10:38:40.229Z,9.99
2024-02-06T10:42:09.079Z,9.93
2024-02-06T10:45:18.533Z,9.89
2024-02-06T10:48:25.466Z,9.89
2024-02-06T10:51:32.080Z,9.92
2024-02-06T10:54:39.082Z,9.98
2024-02-06T10:57:47.827Z,10.04
2024-02-06T11:00:55.400Z,10.09
2024-02-06T11:04:07.974Z,10.14
2024-02-06T11:07:17.807Z,10.16
2024-02-06T11:10:29.859Z,10.19
2024-02-06T11:13:40.251Z,10.20
2024-02-06T11:16:52.411Z,10.21
2024-02-06T11:20:05.579Z,10.22
2024-02-06T11:23:14.605Z,10.26
2024-02-06T11:26:21.202Z,10.32
2024-02-06T11:29:27.727Z,10.36
2024-02-06T11:32:34.224Z,10.39
2024-02-06T11:35:41.849Z,10.42
2024-02-06T11:38:48.004Z,10.44
2024-02-06T11:41:52.546Z,10.47
2024-02-06T11:45:12.385Z,10.49
2024-02-06T11:48:28.049Z,10.52
2024-02-06T11:51:32.895Z,10.54
2024-02-06T11:54:39.766Z,10.55
2024-02-06T11:57:46.316Z,10.54
2024-02-06T12:00:56.365Z,10.53
2024-02-06T12:04:04.842Z,10.52
2024-02-06T12:07:11.422Z,10.49
2024-02-06T12:10:26.824Z,10.47
2024-02-06T12:13:34.830Z,10.44
2024-02-06T12:16:41.971Z,10.42
2024-02-06T12:19:51.477Z,10.40
2024-02-06T12:23:05.874Z,10.39
2024-02-06T12:26:12.813Z,10.38
2024-02-06T12:29:19.269Z,10.37
2024-02-06T12:32:25.567Z,10.36
2024-02-06T12:35:32.034Z,10.36
2024-02-06T12:38:38.119Z,10.37
2024-02-06T12:41:44.969Z,10.38
2024-02-06T12:44:51.554Z,10.39
2024-02-06T12:47:58.941Z,10.43
2024-02-06T12:51:05.430Z,10.48
2024-02-06T12:54:11.870Z,10.55
2024-02-06T12:57:19.565Z,10.64
2024-02-06T13:00:26.297Z,10.73
2024-02-06T13:03:36.880Z,10.82
2024-02-06T13:06:43.281Z,10.93
2024-02-06T13:09:49.402Z,11.04
2024-02-06T13:13:04.863Z,11.10
2024-02-06T13:16:14.497Z,11.15
2024-02-06T13:19:29.497Z,11.21
2024-02-06T13:22:35.979Z,11.29
2024-02-06T13:25:43.328Z,11.34
2024-02-06T13:28:59.882Z,11.35
2024-02-06T13:32:06.675Z,11.36
2024-02-06T13:35:13.095Z,11.33
2024-02-06T13:38:19.332Z,11.26
2024-02-06T13:41:23.900Z,11.21
2024-02-06T13:44:30.121Z,11.15
2024-02-06T13:47:34.896Z,11.07
2024-02-06T13:50:41.005Z,10.99
2024-02-06T13:53:47.290Z,10.92
2024-02-06T13:56:53.467Z,10.84
2024-02-06T13:59:58.025Z,10.77
2024-02-06T14:03:04.082Z,10.70
2024-02-06T14:06:11.023Z,10.63
2024-02-06T14:09:19.138Z,10.58
2024-02-06T14:12:29.617Z,10.52
2024-02-06T14:15:38.649Z,10.46
2024-02-06T14:18:45.099Z,10.42
2024-02-06T14:21:51.352Z,10.36
2024-02-06T14:24:55.936Z,10.31
2024-02-06T14:28:02.096Z,10.27
2024-02-06T14:31:06.870Z,10.22
2024-02-06T14:34:13.350Z,10.18
2024-02-06T14:37:20.158Z,10.14
2024-02-06T14:40:26.474Z,10.10
2024-02-06T14:43:32.737Z,10.06
2024-02-06T14:46:39.307Z,10.02
2024-02-06T14:49:45.599Z,9.98
2024-02-06T14:52:51.779Z,9.96
2024-02-06T14:55:56.382Z,9.93
2024-02-06T14:59:02.625Z,9.90
2024-02-06T15:02:07.172Z,9.87
2024-02-06T15:05:17.423Z,9.84
2024-02-06T15:08:24.772Z,9.82
2024-02-06T15:11:31.256Z,9.80
2024-02-06T15:14:37.698Z,9.77
2024-02-06T15:17:44.009Z,9.75
2024-02-06T15:20:53.453Z,9.72
2024-02-06T15:24:01.515Z,9.70
2024-02-06T15:27:08.008Z,9.67
2024-02-06T15:30:15.534Z,9.65
2024-02-06T15:33:21.830Z,9.62
2024-02-06T15:36:28.220Z,9.60
2024-02-06T15:39:34.495Z,9.58
2024-02-06T15:42:41.010Z,9.56
2024-02-06T15:45:48.645Z,9.52
2024-02-06T15:48:54.847Z,9.50
2024-02-06T15:52:00.629Z,9.48
2024-02-06T15:55:05.453Z,9.45
2024-02-06T15:58:13.716Z,9.44
2024-02-06T16:01:20.006Z,9.41
2024-02-06T16:04:27.084Z,9.39
2024-02-06T16:07:33.652Z,9.36
2024-02-06T16:10:39.968Z,9.33
2024-02-06T16:13:46.337Z,9.31
2024-02-06T16:16:53.105Z,9.28
2024-02-06T16:19:59.453Z,9.27
2024-02-06T16:23:04.072Z,9.26
2024-02-06T16:26:10.256Z,9.25
2024-02-06T16:29:15.192Z,9.23
2024-02-06T16:32:21.401Z,9.22
2024-02-06T16:35:26.131Z,9.21
2024-02-06T16:38:32.388Z,9.21
2024-02-06T16:41:38.433Z,9.19
2024-02-06T16:44:44.566Z,9.19
2024-02-06T16:47:49.143Z,9.17
2024-02-06T16:50:55.572Z,9.17
2024-02-06T16:54:01.699Z,9.17
2024-02-06T16:57:08.607Z,9.17
2024-02-06T17:00:16.624Z,9.17
2024-02-06T17:03:23.690Z,9.17
2024-02-06T17:06:30.365Z,9.16
2024-02-06T17:09:36.392Z,9.14
2024-02-06T17:12:43.090Z,9.12
2024-02-06T17:15:49.575Z,9.10
2024-02-06T17:18:55.752Z,9.10
2024-02-06T17:22:00.439Z,9.09
2024-02-06T17:25:08.206Z,9.07
2024-02-06T17:28:14.402Z,9.06
2024-02-06T17:31:21.021Z,9.06
2024-02-06T17:34:27.292Z,9.06
2024-02-06T17:37:33.554Z,9.05
2024-02-06T17:40:38.153Z,9.05
2024-02-06T17:43:44.959Z,9.04
2024-02-06T17:46:51.499Z,9.04
2024-02-06T17:49:57.707Z,9.04
2024-02-06T17:53:02.275Z,9.03
2024-02-06T17:56:09.594Z,9.03
2024-02-06T17:59:15.822Z,9.01
2024-02-06T18:02:20.721Z,9.00
2024-02-06T18:05:27.368Z,9.00
2024-02-06T18:08:34.098Z,8.99
2024-02-06T18:11:40.813Z,8.99
2024-02-06T18:14:46.929Z,8.99
2024-02-06T18:17:53.081Z,8.99
2024-02-06T18:20:57.609Z,9.00
2024-02-06T18:24:03.680Z,9.00
2024-02-06T18:27:10.117Z,8.99
2024-02-06T18:30:20.955Z,8.99
2024-02-06T18:33:27.142Z,8.98
2024-02-06T18:36:31.659Z,8.99
2024-02-06T18:39:38.176Z,8.99
2024-02-06T18:42:44.350Z,8.99
2024-02-06T18:45:48.782Z,8.98
2024-02-06T18:48:54.960Z,8.98
2024-02-06T18:51:59.556Z,8.97
2024-02-06T18:55:06.160Z,8.95
2024-02-06T18:58:12.799Z,8.93
2024-02-06T19:01:19.002Z,8.92
2024-02-06T19:04:23.812Z,8.90
2024-02-06T19:07:30.098Z,8.89
2024-02-06T19:10:36.337Z,8.87
2024-02-06T19:13:41.035Z,8.84
2024-02-06T19:16:47.807Z,8.83
2024-02-06T19:19:54.126Z,8.81
2024-02-06T19:22:58.623Z,8.80
2024-02-06T19:26:04.903Z,8.79
2024-02-06T19:29:09.450Z,8.79
2024-02-06T19:32:15.576Z,8.80
2024-02-06T19:35:21.737Z,8.81
2024-02-06T19:38:26.274Z,8.82
2024-02-06T19:41:32.554Z,8.82
2024-02-06T19:44:41.077Z,8.82
2024-02-06T19:47:47.993Z,8.83
2024-02-06T19:50:54.782Z,8.82
2024-02-06T19:54:01.846Z,8.81
2024-02-06T19:57:08.567Z,8.81
2024-02-06T20:00:15.994Z,8.80
2024-02-06T20:03:22.088Z,8.80
2024-02-06T20:06:28.181Z,8.80
2024-02-06T20:09:34.328Z,8.80
2024-02-06T20:12:41.333Z,8.81
2024-02-06T20:15:47.503Z,8.82
2024-02-06T20:18:52.180Z,8.96
2024-02-06T20:21:58.437Z,9.55
2024-02-06T20:25:04.145Z,10.12
2024-02-06T20:28:12.886Z,10.51
2024-02-06T20:31:20.064Z,10.71
2024-02-06T20:34:26.504Z,10.39
2024-02-06T20:37:32.825Z,10.08
2024-02-06T20:40:39.005Z,9.87
2024-02-06T20:43:43.709Z,9.72
2024-02-06T20:46:50.339Z,9.60
2024-02-06T20:49:56.770Z,9.52
2024-02-06T20:53:02.981Z,9.44
2024-02-06T20:56:09.076Z,9.37
2024-02-06T20:59:15.149Z,9.32
2024-02-06T21:02:21.799Z,9.29
2024-02-06T21:05:28.521Z,9.26
2024-02-06T21:08:34.814Z,9.24
2024-02-06T21:11:39.295Z,9.21
2024-02-06T21:14:45.602Z,9.19
2024-02-06T21:17:51.833Z,9.17
2024-02-06T21:20:58.183Z,9.15
2024-02-06T21:24:02.917Z,9.13
2024-02-06T21:27:09.672Z,9.10
2024-02-06T21:30:17.175Z,9.09
2024-02-06T21:33:23.324Z,9.08
2024-02-06T21:36:29.705Z,9.09
2024-02-06T21:39:35.926Z,9.10
2024-02-06T21:42:41.917Z,9.11
2024-02-06T21:45:48.419Z,9.12
2024-02-06T21:48:54.711Z,9.13
2024-02-06T21:52:00.821Z,9.16
2024-02-06T21:55:12.410Z,9.19
2024-02-06T21:58:19.655Z,9.21
2024-02-06T22:01:25.819Z,9.24
2024-02-06T22:04:30.533Z,9.26
2024-02-06T22:07:37.145Z,9.28
2024-02-06T22:10:55.083Z,9.29
2024-02-06T22:14:01.342Z,9.31
2024-02-06T22:17:06.228Z,9.34
2024-02-06T22:20:14.507Z,9.36
2024-02-06T22:23:24.711Z,9.39
2024-02-06T22:26:30.935Z,9.42
2024-02-06T22:29:38.326Z,9.44
2024-02-06T22:32:44.540Z,9.46
2024-02-06T22:35:51.335Z,9.48
2024-02-06T22:38:57.575Z,9.51
2024-02-06T22:42:03.138Z,9.52
2024-02-06T22:45:13.249Z,9.54
2024-02-06T22:48:19.351Z,9.55
2024-02-06T22:51:28.315Z,9.57
2024-02-06T22:54:34.540Z,9.60
2024-02-06T22:57:39.880Z,9.61
2024-02-06T23:00:44.926Z,9.62
2024-02-06T23:03:51.235Z,9.64
2024-02-06T23:06:57.482Z,9.65
2024-02-06T23:10:02.033Z,9.66
2024-02-06T23:13:08.358Z,9.67
2024-02-06T23:16:14.509Z,9.68
2024-02-06T23:19:19.411Z,9.68
2024-02-06T23:22:25.941Z,9.69
2024-02-06T23:25:32.230Z,9.69
2024-02-06T23:28:38.594Z,9.70
2024-02-06T23:31:45.208Z,9.71
2024-02-06T23:34:52.611Z,9.73
2024-02-06T23:37:58.893Z,9.74
2024-02-06T23:41:04.189Z,9.76
2024-02-06T23:44:10.606Z,9.79
2024-02-06T23:47:16.920Z,9.82
2024-02-06T23:50:23.472Z,9.85
2024-02-06T23:53:29.877Z,9.87
2024-02-06T23:56:36.236Z,9.90
2024-02-06T23:59:42.436Z,9.92
